Glen Dean, Kentucky
Current Conditions -  °F | °C
As of 4:56 PM on Thursday 27 Nov 2014 (Local Time) from KOWB Reporting Station
Unknown Precip Unknown Precip  
Wind Chill: 22°   Ceiling: 2700
Heat Index: 31°   Visibility: 10mi
Dew Point: 24°   Wind: 12mph
Humidity: 75%   Direction: 330°NNW
Pressure: 30.47"   Gusts: NA
Location:  37.6217°N, 86.5365°W
Report Text: KOWB 272256Z 33010KT 10SM UP FEW023 OVC027 M01/M04 A3047 RMK AO2 T10051044 UPB23 P0000 SLP321
Loading
Personal Weather Stations






























Interactive Weather Map New forecast layout! Learn more

10-Day Weather Forecast

Advertisements
Track Severe Weather on mobile